Aérodrome :
LOGIN :

S'inscrire | Disclaimer

   EN    FR    IT 

 










Légende :    VFR   VFR Marginal   IFR   IFR Intensif   IFR Très Intensif
Visi : 
Plafond : 
>= 8 km
>= 3000ft
5 à 8 km
1000 à 3000 ft
1500m à 5 km
500 à 1000 ft
800 à 1500m
200 à 500 ft
< 800m
< 200 ft
Symboles :   Orages  Brouillard  Fortes neiges  Fortes précipitations  Vent > 20 kt
SIGMETs :   Divers  Orages  Givrage  Turbulence  Onde Orograph.  Cendres Volcan.






- Altitude de l'aérodrome : 17 ft
- Code IATA : MPL


LFMT - Montpellier Méditerranée

DERNIER METAR :
  • 280730Z AUTO VRB03KT CAVOK 21/14 Q1026 BECMG 20015KT

METARs EXPIRÉS :
  • 280700Z AUTO 03005KT CAVOK 20/14 Q1026 BECMG 20015KT
  • 280630Z AUTO 02005KT CAVOK 18/14 Q1026 BECMG 20015KT
  • 280600Z AUTO 03004KT CAVOK 17/14 Q1026 NOSIG
  • 280530Z AUTO 02003KT CAVOK 15/14 Q1026 NOSIG
  • 280500Z AUTO 35002KT CAVOK 14/13 Q1026 NOSIG

TAF TAF LFMT
Valide du 28 à 03h jusqu'au 29 à 03h UTC


280200Z 2803/2903 25005KT CAVOK
BECMG 2808/2810 20015KT
BECMG 2816/2818 22008KT
ATIS : +33 4 67 13 11 70



MET'MAP, la Météo Aéronautique d'un coup d'oeil ! - Copyright ORBIFLY Décembre 2007 - Disclaimer

ORBIFLY MET'MAP TEAM :

Programmation & Développement : Alexandra Zaïnal
Sur une idée originale de : Baudouin d'Aumeries
Assistance à la programmation : Marc-Olivier Méhu
Soutien technique & logistique : Manuel Goepfert

Contact : metmap@orbifly.com




SOURCES & CREDITS :

   NOAA